sensor_id;sensor_type;location;lat;lon;timestamp;temperature;humidity
8565;DHT22;4320;51.498;6.556;2024-01-07T00:01:38;4.20;99.90
8565;DHT22;4320;51.498;6.556;2024-01-07T00:04:03;4.10;99.90
8565;DHT22;4320;51.498;6.556;2024-01-07T00:06:29;3.90;99.90
8565;DHT22;4320;51.498;6.556;2024-01-07T00:08:54;4.20;99.90
8565;DHT22;4320;51.498;6.556;2024-01-07T00:11:20;4.20;99.90
8565;DHT22;4320;51.498;6.556;2024-01-07T00:13:46;4.10;99.90
8565;DHT22;4320;51.498;6.556;2024-01-07T00:16:11;4.10;99.90
8565;DHT22;4320;51.498;6.556;2024-01-07T00:18:37;4.20;99.90
8565;DHT22;4320;51.498;6.556;2024-01-07T00:21:03;4.30;99.90
8565;DHT22;4320;51.498;6.556;2024-01-07T00:23:28;4.40;99.90
8565;DHT22;4320;51.498;6.556;2024-01-07T00:25:54;4.40;99.90
8565;DHT22;4320;51.498;6.556;2024-01-07T00:28:20;4.20;99.90
8565;DHT22;4320;51.498;6.556;2024-01-07T00:30:46;4.20;99.90
8565;DHT22;4320;51.498;6.556;2024-01-07T00:33:11;4.20;99.90
8565;DHT22;4320;51.498;6.556;2024-01-07T00:35:37;4.30;99.90
8565;DHT22;4320;51.498;6.556;2024-01-07T00:38:02;4.40;99.90
8565;DHT22;4320;51.498;6.556;2024-01-07T00:40:28;4.30;99.90
8565;DHT22;4320;51.498;6.556;2024-01-07T00:42:54;4.20;99.90
8565;DHT22;4320;51.498;6.556;2024-01-07T00:45:19;4.40;99.90
8565;DHT22;4320;51.498;6.556;2024-01-07T00:47:45;4.10;99.90
8565;DHT22;4320;51.498;6.556;2024-01-07T00:50:11;4.10;99.90
8565;DHT22;4320;51.498;6.556;2024-01-07T00:52:36;4.20;99.90
8565;DHT22;4320;51.498;6.556;2024-01-07T00:55:08;4.30;99.90
8565;DHT22;4320;51.498;6.556;2024-01-07T00:57:33;4.40;99.90
8565;DHT22;4320;51.498;6.556;2024-01-07T01:00:00;4.50;99.90
8565;DHT22;4320;51.498;6.556;2024-01-07T01:02:26;4.50;99.90
8565;DHT22;4320;51.498;6.556;2024-01-07T01:04:51;4.30;99.90
8565;DHT22;4320;51.498;6.556;2024-01-07T01:07:17;4.40;99.90
8565;DHT22;4320;51.498;6.556;2024-01-07T01:09:42;4.40;99.90
8565;DHT22;4320;51.498;6.556;2024-01-07T01:12:08;4.50;99.90
8565;DHT22;4320;51.498;6.556;2024-01-07T01:14:33;4.40;99.90
8565;DHT22;4320;51.498;6.556;2024-01-07T01:16:59;4.40;99.90
8565;DHT22;4320;51.498;6.556;2024-01-07T01:19:25;4.30;99.90
8565;DHT22;4320;51.498;6.556;2024-01-07T01:21:50;4.20;99.90
8565;DHT22;4320;51.498;6.556;2024-01-07T01:24:16;4.30;99.90
8565;DHT22;4320;51.498;6.556;2024-01-07T01:26:41;4.10;99.90
8565;DHT22;4320;51.498;6.556;2024-01-07T01:29:07;4.00;99.90
8565;DHT22;4320;51.498;6.556;2024-01-07T01:31:33;4.00;99.90
8565;DHT22;4320;51.498;6.556;2024-01-07T01:33:58;4.00;99.90
8565;DHT22;4320;51.498;6.556;2024-01-07T01:36:24;4.10;99.90
8565;DHT22;4320;51.498;6.556;2024-01-07T01:38:50;4.20;99.90
8565;DHT22;4320;51.498;6.556;2024-01-07T01:41:18;4.10;99.90
8565;DHT22;4320;51.498;6.556;2024-01-07T01:43:43;4.10;99.90
8565;DHT22;4320;51.498;6.556;2024-01-07T01:46:13;4.10;99.90
8565;DHT22;4320;51.498;6.556;2024-01-07T01:48:40;4.20;99.90
8565;DHT22;4320;51.498;6.556;2024-01-07T01:51:06;4.30;99.90
8565;DHT22;4320;51.498;6.556;2024-01-07T01:53:33;4.40;99.90
8565;DHT22;4320;51.498;6.556;2024-01-07T01:56:00;4.50;99.90
8565;DHT22;4320;51.498;6.556;2024-01-07T01:58:26;4.40;99.90
8565;DHT22;4320;51.498;6.556;2024-01-07T02:00:53;4.40;99.90
8565;DHT22;4320;51.498;6.556;2024-01-07T02:03:19;4.20;99.90
8565;DHT22;4320;51.498;6.556;2024-01-07T02:05:45;4.10;99.90
8565;DHT22;4320;51.498;6.556;2024-01-07T02:08:11;4.10;99.90
8565;DHT22;4320;51.498;6.556;2024-01-07T02:10:37;4.30;99.90
8565;DHT22;4320;51.498;6.556;2024-01-07T02:13:03;4.30;99.90
8565;DHT22;4320;51.498;6.556;2024-01-07T02:15:30;4.20;99.90
8565;DHT22;4320;51.498;6.556;2024-01-07T02:17:55;4.20;99.90
8565;DHT22;4320;51.498;6.556;2024-01-07T02:20:21;4.30;99.90
8565;DHT22;4320;51.498;6.556;2024-01-07T02:22:47;4.20;99.90
8565;DHT22;4320;51.498;6.556;2024-01-07T02:25:12;4.20;99.90
8565;DHT22;4320;51.498;6.556;2024-01-07T02:27:38;4.20;99.90
8565;DHT22;4320;51.498;6.556;2024-01-07T02:30:04;4.00;99.90
8565;DHT22;4320;51.498;6.556;2024-01-07T02:32:30;4.00;99.90
8565;DHT22;4320;51.498;6.556;2024-01-07T02:34:59;4.00;99.90
8565;DHT22;4320;51.498;6.556;2024-01-07T02:37:25;4.00;99.90
8565;DHT22;4320;51.498;6.556;2024-01-07T02:39:51;3.90;99.90
8565;DHT22;4320;51.498;6.556;2024-01-07T02:42:16;3.70;99.90
8565;DHT22;4320;51.498;6.556;2024-01-07T02:44:42;3.90;99.90
8565;DHT22;4320;51.498;6.556;2024-01-07T02:47:08;3.90;99.90
8565;DHT22;4320;51.498;6.556;2024-01-07T02:49:33;3.90;99.90
8565;DHT22;4320;51.498;6.556;2024-01-07T02:51:59;4.00;99.90
8565;DHT22;4320;51.498;6.556;2024-01-07T02:54:25;3.90;99.90
8565;DHT22;4320;51.498;6.556;2024-01-07T02:56:50;3.80;99.90
8565;DHT22;4320;51.498;6.556;2024-01-07T02:59:16;3.70;99.90
8565;DHT22;4320;51.498;6.556;2024-01-07T03:01:41;3.80;99.90
8565;DHT22;4320;51.498;6.556;2024-01-07T03:04:13;3.70;99.90
8565;DHT22;4320;51.498;6.556;2024-01-07T03:06:39;3.90;99.90
8565;DHT22;4320;51.498;6.556;2024-01-07T03:09:05;3.90;99.90
8565;DHT22;4320;51.498;6.556;2024-01-07T03:11:30;3.70;99.90
8565;DHT22;4320;51.498;6.556;2024-01-07T03:13:56;3.60;99.90
8565;DHT22;4320;51.498;6.556;2024-01-07T03:16:23;3.50;99.90
8565;DHT22;4320;51.498;6.556;2024-01-07T03:18:49;3.80;99.90
8565;DHT22;4320;51.498;6.556;2024-01-07T03:23:44;3.70;99.90
8565;DHT22;4320;51.498;6.556;2024-01-07T03:26:09;3.60;99.90
8565;DHT22;4320;51.498;6.556;2024-01-07T03:28:35;3.60;99.90
8565;DHT22;4320;51.498;6.556;2024-01-07T03:31:14;3.60;99.90
8565;DHT22;4320;51.498;6.556;2024-01-07T03:33:40;3.70;99.90
8565;DHT22;4320;51.498;6.556;2024-01-07T03:36:10;3.80;99.90
8565;DHT22;4320;51.498;6.556;2024-01-07T03:38:37;4.00;99.90
8565;DHT22;4320;51.498;6.556;2024-01-07T03:41:03;4.00;99.90
8565;DHT22;4320;51.498;6.556;2024-01-07T03:43:28;4.00;99.90
8565;DHT22;4320;51.498;6.556;2024-01-07T03:45:54;3.80;99.90
8565;DHT22;4320;51.498;6.556;2024-01-07T03:48:20;3.80;99.90
8565;DHT22;4320;51.498;6.556;2024-01-07T03:50:45;3.90;99.90
8565;DHT22;4320;51.498;6.556;2024-01-07T03:53:11;3.90;99.90
8565;DHT22;4320;51.498;6.556;2024-01-07T03:55:37;3.80;99.90
8565;DHT22;4320;51.498;6.556;2024-01-07T03:58:03;3.80;99.90
8565;DHT22;4320;51.498;6.556;2024-01-07T04:00:29;3.80;99.90
8565;DHT22;4320;51.498;6.556;2024-01-07T04:02:55;3.80;99.90
8565;DHT22;4320;51.498;6.556;2024-01-07T04:05:20;3.70;99.90
8565;DHT22;4320;51.498;6.556;2024-01-07T04:07:46;3.50;99.90
8565;DHT22;4320;51.498;6.556;2024-01-07T04:10:11;3.40;99.90
8565;DHT22;4320;51.498;6.556;2024-01-07T04:12:37;3.40;99.90
8565;DHT22;4320;51.498;6.556;2024-01-07T04:15:04;3.20;99.90
8565;DHT22;4320;51.498;6.556;2024-01-07T04:17:30;3.00;99.90
8565;DHT22;4320;51.498;6.556;2024-01-07T04:19:55;3.10;99.90
8565;DHT22;4320;51.498;6.556;2024-01-07T04:22:21;3.20;99.90
8565;DHT22;4320;51.498;6.556;2024-01-07T04:24:47;3.20;99.90
8565;DHT22;4320;51.498;6.556;2024-01-07T04:27:12;3.40;99.90
8565;DHT22;4320;51.498;6.556;2024-01-07T04:29:38;3.50;99.90
8565;DHT22;4320;51.498;6.556;2024-01-07T04:32:03;3.60;99.90
8565;DHT22;4320;51.498;6.556;2024-01-07T04:34:29;3.50;99.90
8565;DHT22;4320;51.498;6.556;2024-01-07T04:36:55;3.40;99.90
8565;DHT22;4320;51.498;6.556;2024-01-07T04:39:20;3.20;99.90
8565;DHT22;4320;51.498;6.556;2024-01-07T04:41:46;3.20;99.90
8565;DHT22;4320;51.498;6.556;2024-01-07T04:44:11;3.30;99.90
8565;DHT22;4320;51.498;6.556;2024-01-07T04:46:39;3.40;99.90
8565;DHT22;4320;51.498;6.556;2024-01-07T04:49:05;3.30;99.90
8565;DHT22;4320;51.498;6.556;2024-01-07T04:51:34;3.30;99.90
8565;DHT22;4320;51.498;6.556;2024-01-07T04:54:01;3.20;99.90
8565;DHT22;4320;51.498;6.556;2024-01-07T04:56:27;3.10;99.90
8565;DHT22;4320;51.498;6.556;2024-01-07T04:58:52;3.20;99.90
8565;DHT22;4320;51.498;6.556;2024-01-07T05:01:18;3.50;99.90
8565;DHT22;4320;51.498;6.556;2024-01-07T05:03:44;3.60;99.90
8565;DHT22;4320;51.498;6.556;2024-01-07T05:06:10;3.40;99.90
8565;DHT22;4320;51.498;6.556;2024-01-07T05:08:40;3.20;99.90
8565;DHT22;4320;51.498;6.556;2024-01-07T05:11:06;3.20;99.90
8565;DHT22;4320;51.498;6.556;2024-01-07T05:13:32;3.20;99.90
8565;DHT22;4320;51.498;6.556;2024-01-07T05:15:57;3.30;99.90
8565;DHT22;4320;51.498;6.556;2024-01-07T05:18:23;3.10;99.90
8565;DHT22;4320;51.498;6.556;2024-01-07T05:20:50;3.30;99.90
8565;DHT22;4320;51.498;6.556;2024-01-07T05:23:16;3.50;99.90
8565;DHT22;4320;51.498;6.556;2024-01-07T05:25:45;3.40;99.90
8565;DHT22;4320;51.498;6.556;2024-01-07T05:28:11;3.50;99.90
8565;DHT22;4320;51.498;6.556;2024-01-07T05:30:38;3.50;99.90
8565;DHT22;4320;51.498;6.556;2024-01-07T05:33:04;3.50;99.90
8565;DHT22;4320;51.498;6.556;2024-01-07T05:35:30;3.40;99.90
8565;DHT22;4320;51.498;6.556;2024-01-07T05:37:56;3.40;99.90
8565;DHT22;4320;51.498;6.556;2024-01-07T05:40:21;3.50;99.90
8565;DHT22;4320;51.498;6.556;2024-01-07T05:42:47;3.40;99.90
8565;DHT22;4320;51.498;6.556;2024-01-07T05:45:13;3.20;99.90
8565;DHT22;4320;51.498;6.556;2024-01-07T05:47:38;3.20;99.90
8565;DHT22;4320;51.498;6.556;2024-01-07T05:50:06;3.20;99.90
8565;DHT22;4320;51.498;6.556;2024-01-07T05:52:32;3.10;99.90
8565;DHT22;4320;51.498;6.556;2024-01-07T05:54:58;2.90;99.90
8565;DHT22;4320;51.498;6.556;2024-01-07T05:57:23;3.10;99.90
8565;DHT22;4320;51.498;6.556;2024-01-07T05:59:49;3.20;99.90
8565;DHT22;4320;51.498;6.556;2024-01-07T06:02:16;3.20;99.90
8565;DHT22;4320;51.498;6.556;2024-01-07T06:04:42;2.90;99.90
8565;DHT22;4320;51.498;6.556;2024-01-07T06:07:08;3.10;99.90
8565;DHT22;4320;51.498;6.556;2024-01-07T06:09:33;3.10;99.90
8565;DHT22;4320;51.498;6.556;2024-01-07T06:11:59;3.10;99.90
8565;DHT22;4320;51.498;6.556;2024-01-07T06:14:25;3.30;99.90
8565;DHT22;4320;51.498;6.556;2024-01-07T06:16:50;3.10;99.90
8565;DHT22;4320;51.498;6.556;2024-01-07T06:19:17;3.10;99.90
8565;DHT22;4320;51.498;6.556;2024-01-07T06:21:42;3.10;99.90
8565;DHT22;4320;51.498;6.556;2024-01-07T06:24:08;2.90;99.90
8565;DHT22;4320;51.498;6.556;2024-01-07T06:26:34;2.80;99.90
8565;DHT22;4320;51.498;6.556;2024-01-07T06:29:00;2.70;99.90
8565;DHT22;4320;51.498;6.556;2024-01-07T06:31:29;2.70;99.90
8565;DHT22;4320;51.498;6.556;2024-01-07T06:33:57;2.70;99.90
8565;DHT22;4320;51.498;6.556;2024-01-07T06:36:24;2.80;99.90
8565;DHT22;4320;51.498;6.556;2024-01-07T06:38:50;2.90;99.90
8565;DHT22;4320;51.498;6.556;2024-01-07T06:41:16;2.80;99.90
8565;DHT22;4320;51.498;6.556;2024-01-07T06:43:41;2.70;99.90
8565;DHT22;4320;51.498;6.556;2024-01-07T06:46:07;2.50;99.90
8565;DHT22;4320;51.498;6.556;2024-01-07T06:48:32;2.60;99.90
8565;DHT22;4320;51.498;6.556;2024-01-07T06:50:58;2.80;99.90
8565;DHT22;4320;51.498;6.556;2024-01-07T06:53:24;2.90;99.90
8565;DHT22;4320;51.498;6.556;2024-01-07T06:55:49;3.00;99.90
8565;DHT22;4320;51.498;6.556;2024-01-07T06:58:15;3.10;99.90
8565;DHT22;4320;51.498;6.556;2024-01-07T07:00:41;2.90;99.90
8565;DHT22;4320;51.498;6.556;2024-01-07T07:03:08;2.80;99.90
8565;DHT22;4320;51.498;6.556;2024-01-07T07:05:33;2.90;99.90
8565;DHT22;4320;51.498;6.556;2024-01-07T07:07:59;2.90;99.90
8565;DHT22;4320;51.498;6.556;2024-01-07T07:10:24;3.00;99.90
8565;DHT22;4320;51.498;6.556;2024-01-07T07:12:51;3.00;99.90
8565;DHT22;4320;51.498;6.556;2024-01-07T07:15:17;3.00;99.90
8565;DHT22;4320;51.498;6.556;2024-01-07T07:17:42;2.80;99.90
8565;DHT22;4320;51.498;6.556;2024-01-07T07:20:08;2.80;99.90
8565;DHT22;4320;51.498;6.556;2024-01-07T07:22:34;2.80;99.90
8565;DHT22;4320;51.498;6.556;2024-01-07T07:25:00;2.70;99.90
8565;DHT22;4320;51.498;6.556;2024-01-07T07:27:25;2.70;99.90
8565;DHT22;4320;51.498;6.556;2024-01-07T07:29:51;2.90;99.90
8565;DHT22;4320;51.498;6.556;2024-01-07T07:32:17;2.80;99.90
8565;DHT22;4320;51.498;6.556;2024-01-07T07:34:43;2.90;99.90
8565;DHT22;4320;51.498;6.556;2024-01-07T07:37:09;3.00;99.90
8565;DHT22;4320;51.498;6.556;2024-01-07T07:39:35;2.90;99.90
8565;DHT22;4320;51.498;6.556;2024-01-07T07:42:04;2.90;99.90
8565;DHT22;4320;51.498;6.556;2024-01-07T07:44:29;2.90;99.90
8565;DHT22;4320;51.498;6.556;2024-01-07T07:46:55;2.80;99.90
8565;DHT22;4320;51.498;6.556;2024-01-07T07:49:20;2.90;99.90
8565;DHT22;4320;51.498;6.556;2024-01-07T07:51:46;2.80;99.90
8565;DHT22;4320;51.498;6.556;2024-01-07T07:54:12;2.90;99.90
8565;DHT22;4320;51.498;6.556;2024-01-07T07:56:37;3.00;99.90
8565;DHT22;4320;51.498;6.556;2024-01-07T07:59:04;3.10;99.90
8565;DHT22;4320;51.498;6.556;2024-01-07T08:01:29;3.10;99.90
8565;DHT22;4320;51.498;6.556;2024-01-07T08:03:55;3.20;99.90
8565;DHT22;4320;51.498;6.556;2024-01-07T08:06:21;2.90;99.90
8565;DHT22;4320;51.498;6.556;2024-01-07T08:08:47;3.00;99.90
8565;DHT22;4320;51.498;6.556;2024-01-07T08:11:12;3.00;99.90
8565;DHT22;4320;51.498;6.556;2024-01-07T08:13:38;2.90;99.90
8565;DHT22;4320;51.498;6.556;2024-01-07T08:16:04;2.80;99.90
8565;DHT22;4320;51.498;6.556;2024-01-07T08:18:34;2.80;99.90
8565;DHT22;4320;51.498;6.556;2024-01-07T08:20:59;2.50;99.90
8565;DHT22;4320;51.498;6.556;2024-01-07T08:23:25;2.50;99.90
8565;DHT22;4320;51.498;6.556;2024-01-07T08:25:51;2.50;99.90
8565;DHT22;4320;51.498;6.556;2024-01-07T08:28:17;2.60;99.90
8565;DHT22;4320;51.498;6.556;2024-01-07T08:30:44;2.90;99.90
8565;DHT22;4320;51.498;6.556;2024-01-07T08:33:10;2.80;99.90
8565;DHT22;4320;51.498;6.556;2024-01-07T08:35:35;2.70;99.90
8565;DHT22;4320;51.498;6.556;2024-01-07T08:38:01;2.90;99.90
8565;DHT22;4320;51.498;6.556;2024-01-07T08:40:27;2.90;99.90
8565;DHT22;4320;51.498;6.556;2024-01-07T08:42:52;2.80;99.90
8565;DHT22;4320;51.498;6.556;2024-01-07T08:45:18;2.60;99.90
8565;DHT22;4320;51.498;6.556;2024-01-07T08:47:44;2.50;99.90
8565;DHT22;4320;51.498;6.556;2024-01-07T08:50:10;2.50;99.90
8565;DHT22;4320;51.498;6.556;2024-01-07T08:52:35;2.60;99.90
8565;DHT22;4320;51.498;6.556;2024-01-07T08:55:02;2.60;99.90
8565;DHT22;4320;51.498;6.556;2024-01-07T08:57:27;2.70;99.90
8565;DHT22;4320;51.498;6.556;2024-01-07T08:59:53;2.70;99.90
8565;DHT22;4320;51.498;6.556;2024-01-07T09:02:19;2.40;99.90
8565;DHT22;4320;51.498;6.556;2024-01-07T09:04:44;2.40;99.90
8565;DHT22;4320;51.498;6.556;2024-01-07T09:07:10;2.60;99.90
8565;DHT22;4320;51.498;6.556;2024-01-07T09:09:36;2.60;99.90
8565;DHT22;4320;51.498;6.556;2024-01-07T09:12:01;2.50;99.90
8565;DHT22;4320;51.498;6.556;2024-01-07T09:14:29;2.50;99.90
8565;DHT22;4320;51.498;6.556;2024-01-07T09:16:55;2.50;99.90
8565;DHT22;4320;51.498;6.556;2024-01-07T09:19:21;2.40;99.90
8565;DHT22;4320;51.498;6.556;2024-01-07T09:21:46;2.30;99.90
8565;DHT22;4320;51.498;6.556;2024-01-07T09:24:12;2.50;99.90
8565;DHT22;4320;51.498;6.556;2024-01-07T09:26:37;2.30;99.90
8565;DHT22;4320;51.498;6.556;2024-01-07T09:29:03;2.30;99.90
8565;DHT22;4320;51.498;6.556;2024-01-07T09:31:29;2.50;99.90
8565;DHT22;4320;51.498;6.556;2024-01-07T09:33:54;2.40;99.90
8565;DHT22;4320;51.498;6.556;2024-01-07T09:36:20;2.40;99.90
8565;DHT22;4320;51.498;6.556;2024-01-07T09:38:46;2.50;99.90
8565;DHT22;4320;51.498;6.556;2024-01-07T09:41:11;2.30;99.90
8565;DHT22;4320;51.498;6.556;2024-01-07T09:43:37;2.30;99.90
8565;DHT22;4320;51.498;6.556;2024-01-07T09:46:03;2.60;99.90
8565;DHT22;4320;51.498;6.556;2024-01-07T09:48:29;2.50;99.90
8565;DHT22;4320;51.498;6.556;2024-01-07T09:50:57;2.60;99.90
8565;DHT22;4320;51.498;6.556;2024-01-07T09:53:25;2.80;99.90
8565;DHT22;4320;51.498;6.556;2024-01-07T09:56:11;2.80;99.90
8565;DHT22;4320;51.498;6.556;2024-01-07T09:58:44;2.70;99.90
8565;DHT22;4320;51.498;6.556;2024-01-07T10:01:10;2.70;99.90
8565;DHT22;4320;51.498;6.556;2024-01-07T10:03:36;2.60;99.90
8565;DHT22;4320;51.498;6.556;2024-01-07T10:06:02;2.50;99.90
8565;DHT22;4320;51.498;6.556;2024-01-07T10:08:27;2.60;99.90
8565;DHT22;4320;51.498;6.556;2024-01-07T10:10:53;2.60;99.90
8565;DHT22;4320;51.498;6.556;2024-01-07T10:13:20;2.50;99.90
8565;DHT22;4320;51.498;6.556;2024-01-07T10:15:47;2.50;99.90
8565;DHT22;4320;51.498;6.556;2024-01-07T10:18:14;2.70;99.90
8565;DHT22;4320;51.498;6.556;2024-01-07T10:20:39;2.70;99.90
8565;DHT22;4320;51.498;6.556;2024-01-07T10:23:05;2.60;96.20
8565;DHT22;4320;51.498;6.556;2024-01-07T10:25:33;2.50;96.70
8565;DHT22;4320;51.498;6.556;2024-01-07T10:28:02;2.70;99.90
8565;DHT22;4320;51.498;6.556;2024-01-07T10:30:31;2.70;94.20
8565;DHT22;4320;51.498;6.556;2024-01-07T10:33:00;2.70;96.70
8565;DHT22;4320;51.498;6.556;2024-01-07T10:35:29;2.70;96.10
8565;DHT22;4320;51.498;6.556;2024-01-07T10:37:57;2.60;92.60
8565;DHT22;4320;51.498;6.556;2024-01-07T10:40:26;2.80;95.20
8565;DHT22;4320;51.498;6.556;2024-01-07T10:42:52;2.90;91.50
8565;DHT22;4320;51.498;6.556;2024-01-07T10:45:19;2.70;84.70
8565;DHT22;4320;51.498;6.556;2024-01-07T10:47:49;2.80;86.10
8565;DHT22;4320;51.498;6.556;2024-01-07T10:50:18;2.50;82.00
8565;DHT22;4320;51.498;6.556;2024-01-07T10:52:48;2.50;86.50
8565;DHT22;4320;51.498;6.556;2024-01-07T10:55:14;2.50;83.60
8565;DHT22;4320;51.498;6.556;2024-01-07T10:57:46;2.50;86.30
8565;DHT22;4320;51.498;6.556;2024-01-07T11:00:16;2.40;82.10
8565;DHT22;4320;51.498;6.556;2024-01-07T11:05:20;2.60;88.10
8565;DHT22;4320;51.498;6.556;2024-01-07T11:08:01;2.50;78.60
8565;DHT22;4320;51.498;6.556;2024-01-07T11:10:38;2.40;79.10
8565;DHT22;4320;51.498;6.556;2024-01-07T11:13:05;2.50;79.30
8565;DHT22;4320;51.498;6.556;2024-01-07T11:18:19;2.40;71.70
8565;DHT22;4320;51.498;6.556;2024-01-07T11:20:46;2.50;80.00
8565;DHT22;4320;51.498;6.556;2024-01-07T11:25:56;2.60;73.00
8565;DHT22;4320;51.498;6.556;2024-01-07T11:28:51;2.50;67.20
8565;DHT22;4320;51.498;6.556;2024-01-07T11:31:21;2.60;61.40
8565;DHT22;4320;51.498;6.556;2024-01-07T11:33:50;2.30;54.10
8565;DHT22;4320;51.498;6.556;2024-01-07T11:36:17;2.30;51.30
8565;DHT22;4320;51.498;6.556;2024-01-07T11:38:45;2.20;44.90
8565;DHT22;4320;51.498;6.556;2024-01-07T11:41:14;2.30;47.20
8565;DHT22;4320;51.498;6.556;2024-01-07T11:43:56;2.40;41.50
8565;DHT22;4320;51.498;6.556;2024-01-07T11:46:24;2.30;33.40
8565;DHT22;4320;51.498;6.556;2024-01-07T11:48:53;2.30;29.60
8565;DHT22;4320;51.498;6.556;2024-01-07T11:51:19;2.10;26.40
8565;DHT22;4320;51.498;6.556;2024-01-07T11:53:49;2.10;23.50
8565;DHT22;4320;51.498;6.556;2024-01-07T11:56:15;2.20;25.60
8565;DHT22;4320;51.498;6.556;2024-01-07T11:58:41;2.00;20.40
8565;DHT22;4320;51.498;6.556;2024-01-07T12:01:07;2.30;24.90
8565;DHT22;4320;51.498;6.556;2024-01-07T12:03:33;2.30;22.70
8565;DHT22;4320;51.498;6.556;2024-01-07T12:05:59;2.50;19.90
8565;DHT22;4320;51.498;6.556;2024-01-07T12:08:25;2.30;17.00
8565;DHT22;4320;51.498;6.556;2024-01-07T12:10:50;2.20;14.90
8565;DHT22;4320;51.498;6.556;2024-01-07T12:13:17;2.20;15.50
8565;DHT22;4320;51.498;6.556;2024-01-07T12:15:43;2.20;14.80
8565;DHT22;4320;51.498;6.556;2024-01-07T12:18:09;2.40;14.40
8565;DHT22;4320;51.498;6.556;2024-01-07T12:20:35;2.50;13.50
8565;DHT22;4320;51.498;6.556;2024-01-07T12:23:07;2.20;7.20
8565;DHT22;4320;51.498;6.556;2024-01-07T12:25:33;2.20;7.10
8565;DHT22;4320;51.498;6.556;2024-01-07T12:28:00;2.40;10.50
8565;DHT22;4320;51.498;6.556;2024-01-07T12:30:29;2.50;7.50
8565;DHT22;4320;51.498;6.556;2024-01-07T12:33:04;2.70;10.60
8565;DHT22;4320;51.498;6.556;2024-01-07T12:35:30;2.50;3.70
8565;DHT22;4320;51.498;6.556;2024-01-07T12:37:56;2.30;1.00
8565;DHT22;4320;51.498;6.556;2024-01-07T12:40:22;2.00;1.00
8565;DHT22;4320;51.498;6.556;2024-01-07T12:42:49;1.90;1.00
8565;DHT22;4320;51.498;6.556;2024-01-07T12:45:15;1.80;1.00
8565;DHT22;4320;51.498;6.556;2024-01-07T12:47:41;1.90;1.00
8565;DHT22;4320;51.498;6.556;2024-01-07T12:50:08;2.00;1.00
8565;DHT22;4320;51.498;6.556;2024-01-07T12:52:36;2.00;1.00
8565;DHT22;4320;51.498;6.556;2024-01-07T12:55:02;1.80;1.00
8565;DHT22;4320;51.498;6.556;2024-01-07T12:57:28;1.60;1.00
8565;DHT22;4320;51.498;6.556;2024-01-07T12:59:54;1.60;1.00
8565;DHT22;4320;51.498;6.556;2024-01-07T13:02:20;1.50;1.00
8565;DHT22;4320;51.498;6.556;2024-01-07T13:04:45;1.50;1.00
8565;DHT22;4320;51.498;6.556;2024-01-07T13:07:11;1.50;1.00
8565;DHT22;4320;51.498;6.556;2024-01-07T13:09:37;1.50;1.00
8565;DHT22;4320;51.498;6.556;2024-01-07T13:12:02;1.70;1.00
8565;DHT22;4320;51.498;6.556;2024-01-07T13:14:29;1.70;1.00
8565;DHT22;4320;51.498;6.556;2024-01-07T13:16:55;1.70;1.00
8565;DHT22;4320;51.498;6.556;2024-01-07T13:19:21;1.60;1.00
8565;DHT22;4320;51.498;6.556;2024-01-07T13:21:46;1.50;1.00
8565;DHT22;4320;51.498;6.556;2024-01-07T13:24:12;1.50;1.00
8565;DHT22;4320;51.498;6.556;2024-01-07T13:26:38;1.70;1.00
8565;DHT22;4320;51.498;6.556;2024-01-07T13:29:03;1.60;1.00
8565;DHT22;4320;51.498;6.556;2024-01-07T13:31:29;1.60;1.00
8565;DHT22;4320;51.498;6.556;2024-01-07T13:33:55;1.60;1.00
8565;DHT22;4320;51.498;6.556;2024-01-07T13:36:21;1.40;1.00
8565;DHT22;4320;51.498;6.556;2024-01-07T13:38:46;1.40;1.00
8565;DHT22;4320;51.498;6.556;2024-01-07T13:41:16;1.30;1.00
8565;DHT22;4320;51.498;6.556;2024-01-07T13:43:42;1.40;1.00
8565;DHT22;4320;51.498;6.556;2024-01-07T13:46:08;1.40;1.00
8565;DHT22;4320;51.498;6.556;2024-01-07T13:48:34;1.50;1.00
8565;DHT22;4320;51.498;6.556;2024-01-07T13:51:00;1.60;1.00
8565;DHT22;4320;51.498;6.556;2024-01-07T13:53:26;1.60;1.00
8565;DHT22;4320;51.498;6.556;2024-01-07T13:55:51;1.60;1.00
8565;DHT22;4320;51.498;6.556;2024-01-07T13:58:17;1.60;1.00
8565;DHT22;4320;51.498;6.556;2024-01-07T14:00:42;1.40;1.00
8565;DHT22;4320;51.498;6.556;2024-01-07T14:03:11;1.40;1.00
8565;DHT22;4320;51.498;6.556;2024-01-07T14:05:37;1.50;1.00
8565;DHT22;4320;51.498;6.556;2024-01-07T14:08:02;1.50;1.00
8565;DHT22;4320;51.498;6.556;2024-01-07T14:10:28;1.70;1.00
8565;DHT22;4320;51.498;6.556;2024-01-07T14:12:54;1.80;1.00
8565;DHT22;4320;51.498;6.556;2024-01-07T14:15:20;1.80;1.00
8565;DHT22;4320;51.498;6.556;2024-01-07T14:17:45;1.80;1.00
8565;DHT22;4320;51.498;6.556;2024-01-07T14:20:11;1.80;1.00
8565;DHT22;4320;51.498;6.556;2024-01-07T14:22:37;1.90;1.00
8565;DHT22;4320;51.498;6.556;2024-01-07T14:25:02;1.80;1.00
8565;DHT22;4320;51.498;6.556;2024-01-07T14:27:29;1.70;1.00
8565;DHT22;4320;51.498;6.556;2024-01-07T14:29:54;1.50;1.00
8565;DHT22;4320;51.498;6.556;2024-01-07T14:32:21;1.50;1.00
8565;DHT22;4320;51.498;6.556;2024-01-07T14:34:47;1.40;1.00
8565;DHT22;4320;51.498;6.556;2024-01-07T14:37:15;1.40;1.00
8565;DHT22;4320;51.498;6.556;2024-01-07T14:39:40;1.40;1.00
8565;DHT22;4320;51.498;6.556;2024-01-07T14:42:06;1.40;1.00
8565;DHT22;4320;51.498;6.556;2024-01-07T14:44:32;1.20;1.00
8565;DHT22;4320;51.498;6.556;2024-01-07T14:46:58;1.20;1.00
8565;DHT22;4320;51.498;6.556;2024-01-07T14:49:24;1.30;1.00
8565;DHT22;4320;51.498;6.556;2024-01-07T14:51:50;1.40;1.00
8565;DHT22;4320;51.498;6.556;2024-01-07T14:54:15;1.50;1.00
8565;DHT22;4320;51.498;6.556;2024-01-07T14:56:41;1.50;1.00
8565;DHT22;4320;51.498;6.556;2024-01-07T14:59:08;1.50;1.00
8565;DHT22;4320;51.498;6.556;2024-01-07T15:01:34;1.50;1.00
8565;DHT22;4320;51.498;6.556;2024-01-07T15:03:59;1.50;1.00
8565;DHT22;4320;51.498;6.556;2024-01-07T15:06:25;1.50;1.00
8565;DHT22;4320;51.498;6.556;2024-01-07T15:08:52;1.50;1.00
8565;DHT22;4320;51.498;6.556;2024-01-07T15:11:19;1.50;1.00
8565;DHT22;4320;51.498;6.556;2024-01-07T15:13:45;1.50;1.00
8565;DHT22;4320;51.498;6.556;2024-01-07T15:16:10;1.70;1.00
8565;DHT22;4320;51.498;6.556;2024-01-07T15:18:36;1.80;1.00
8565;DHT22;4320;51.498;6.556;2024-01-07T15:21:02;1.70;1.00
8565;DHT22;4320;51.498;6.556;2024-01-07T15:23:28;1.50;1.00
8565;DHT22;4320;51.498;6.556;2024-01-07T15:25:54;1.50;1.00
8565;DHT22;4320;51.498;6.556;2024-01-07T15:28:20;1.40;1.00
8565;DHT22;4320;51.498;6.556;2024-01-07T15:30:45;1.60;1.00
8565;DHT22;4320;51.498;6.556;2024-01-07T15:33:14;1.60;1.00
8565;DHT22;4320;51.498;6.556;2024-01-07T15:35:39;1.60;1.00
8565;DHT22;4320;51.498;6.556;2024-01-07T15:38:05;1.50;1.00
8565;DHT22;4320;51.498;6.556;2024-01-07T15:40:31;1.50;1.00
8565;DHT22;4320;51.498;6.556;2024-01-07T15:42:57;1.50;1.00
8565;DHT22;4320;51.498;6.556;2024-01-07T15:45:24;1.60;1.00
8565;DHT22;4320;51.498;6.556;2024-01-07T15:47:50;1.70;1.00
8565;DHT22;4320;51.498;6.556;2024-01-07T15:50:15;1.70;1.00
8565;DHT22;4320;51.498;6.556;2024-01-07T15:52:42;1.50;1.00
8565;DHT22;4320;51.498;6.556;2024-01-07T15:55:12;1.50;1.00
8565;DHT22;4320;51.498;6.556;2024-01-07T15:57:38;1.60;1.00
8565;DHT22;4320;51.498;6.556;2024-01-07T16:00:05;1.50;1.00
8565;DHT22;4320;51.498;6.556;2024-01-07T16:02:31;1.40;1.00
8565;DHT22;4320;51.498;6.556;2024-01-07T16:04:57;1.50;1.00
8565;DHT22;4320;51.498;6.556;2024-01-07T16:07:22;1.40;1.00
8565;DHT22;4320;51.498;6.556;2024-01-07T16:09:48;1.50;1.00
8565;DHT22;4320;51.498;6.556;2024-01-07T16:12:13;1.50;1.00
8565;DHT22;4320;51.498;6.556;2024-01-07T16:14:39;1.70;1.00
8565;DHT22;4320;51.498;6.556;2024-01-07T16:17:05;1.70;1.00
8565;DHT22;4320;51.498;6.556;2024-01-07T16:19:31;1.80;1.00
8565;DHT22;4320;51.498;6.556;2024-01-07T16:21:56;2.00;1.00
8565;DHT22;4320;51.498;6.556;2024-01-07T16:24:27;1.80;1.00
8565;DHT22;4320;51.498;6.556;2024-01-07T16:26:53;1.70;1.00